Time;durP1;ratioP1;P1;durP2;ratioP2;P2;SDS_P1;SDS_P2;PMS_P1;PMS_P2;Temp;Humidity;BMP_temperature;BMP_pressure;BME280_temperature;BME280_humidity;BME280_pressure;Samples;Min_cycle;Max_cycle;Signal;HPM_P1;HPM_P2
2021/12/04 00:00:15;;;;;;;18.88;14.75;;;;;;;3.37;100.00;99954.47;5012373;28;20084;-68
2021/12/04 00:02:40;;;;;;;22.20;15.43;;;;;;;3.35;100.00;99954.69;5021147;28;20026;-69
2021/12/04 00:05:07;;;;;;;20.02;15.32;;;;;;;3.39;100.00;99939.63;5006044;28;20433;-69
2021/12/04 00:07:34;;;;;;;20.38;15.10;;;;;;;3.37;100.00;99947.16;5006470;28;20022;-69
2021/12/04 00:10:03;;;;;;;19.98;15.85;;;;;;;3.38;100.00;99937.13;5013075;28;20112;-69
2021/12/04 00:12:30;;;;;;;18.65;14.85;;;;;;;3.39;100.00;99938.81;5010901;28;20358;-69
2021/12/04 00:14:56;;;;;;;19.83;15.90;;;;;;;3.38;100.00;99934.44;5004885;28;20033;-69
2021/12/04 00:17:22;;;;;;;18.42;14.63;;;;;;;3.37;100.00;99924.63;5005503;28;20037;-69
2021/12/04 00:19:47;;;;;;;19.85;15.02;;;;;;;3.33;100.00;99917.94;5005964;28;20121;-69
2021/12/04 00:22:12;;;;;;;24.83;15.88;;;;;;;3.33;100.00;99909.78;5004556;28;20436;-69
2021/12/04 00:24:37;;;;;;;21.35;15.35;;;;;;;3.34;100.00;99916.88;5004312;28;20087;-69
2021/12/04 00:27:04;;;;;;;20.20;15.95;;;;;;;3.35;100.00;99924.00;5005514;28;20120;-69
2021/12/04 00:29:29;;;;;;;19.17;15.43;;;;;;;3.42;100.00;99913.97;5005676;28;20030;-69
2021/12/04 00:32:00;;;;;;;20.83;16.13;;;;;;;3.37;100.00;99911.88;5005174;28;20033;-69
2021/12/04 00:34:27;;;;;;;20.65;15.77;;;;;;;3.37;100.00;99911.03;5004283;28;20022;-68
2021/12/04 00:37:20;;;;;;;22.05;15.60;;;;;;;3.36;100.00;99915.66;5005227;28;20476;-69
2021/12/04 00:50:48;;;;;;;22.23;14.68;;;;;;;3.38;100.00;99896.44;5004768;28;20546;-68
2021/12/04 00:53:13;;;;;;;17.35;14.20;;;;;;;3.40;100.00;99897.06;5004713;28;20029;-68
2021/12/04 00:55:39;;;;;;;20.10;14.75;;;;;;;3.37;100.00;99889.34;5004721;28;20504;-69
2021/12/04 00:58:04;;;;;;;20.10;14.20;;;;;;;3.35;100.00;99889.56;5004902;28;20028;-69
2021/12/04 01:00:29;;;;;;;17.25;14.15;;;;;;;3.38;100.00;99891.84;5003343;28;20066;-68
2021/12/04 01:02:55;;;;;;;16.13;13.05;;;;;;;3.38;100.00;99897.25;5005441;28;20037;-69
2021/12/04 01:05:20;;;;;;;18.70;13.82;;;;;;;3.38;100.00;99897.25;5004050;28;20029;-67
2021/12/04 01:07:45;;;;;;;18.75;13.48;;;;;;;3.39;100.00;99904.34;5004560;28;20503;-68
2021/12/04 01:10:11;;;;;;;18.33;13.48;;;;;;;3.43;100.00;99895.81;5004202;28;20033;-68
2021/12/04 01:12:36;;;;;;;18.65;13.80;;;;;;;3.42;100.00;99902.28;5025232;28;20022;-68
2021/12/04 01:15:03;;;;;;;19.33;14.32;;;;;;;3.42;100.00;99905.00;5020296;28;20496;-68
2021/12/04 01:17:29;;;;;;;20.40;14.30;;;;;;;3.42;100.00;99902.28;5008931;28;20141;-69
2021/12/04 01:19:54;;;;;;;19.10;14.32;;;;;;;3.46;100.00;99903.56;5005089;28;20657;-69
2021/12/04 01:22:20;;;;;;;17.88;13.80;;;;;;;3.46;100.00;99904.38;5003741;28;20048;-68
2021/12/04 01:24:47;;;;;;;21.88;14.27;;;;;;;3.46;100.00;99898.94;5004390;28;20033;-69
2021/12/04 01:27:14;;;;;;;19.40;14.13;;;;;;;3.46;100.00;99900.84;5004400;28;20026;-69
2021/12/04 01:29:42;;;;;;;20.20;14.40;;;;;;;3.46;100.00;99904.38;5004965;28;20034;-69
2021/12/04 01:32:09;;;;;;;;;;;;;;;3.52;100.00;99900.00;5004030;28;20032;-69
2021/12/04 01:34:34;;;;;;;20.40;13.70;;;;;;;3.48;100.00;99894.13;5004414;28;19924;-69
2021/12/04 01:37:00;;;;;;;20.02;14.50;;;;;;;3.49;100.00;99892.25;5008072;28;20034;-69
2021/12/04 01:39:25;;;;;;;19.23;13.85;;;;;;;3.49;100.00;99884.94;5003631;28;20062;-68
2021/12/04 01:41:51;;;;;;;18.27;14.45;;;;;;;3.49;100.00;99893.09;5004477;28;20120;-69
2021/12/04 01:44:16;;;;;;;20.95;15.48;;;;;;;3.50;100.00;99888.53;5003690;28;20040;-69
2021/12/04 01:46:42;;;;;;;22.38;15.95;;;;;;;3.50;100.00;99889.34;5002560;28;20026;-69
2021/12/04 01:49:07;;;;;;;20.27;14.98;;;;;;;3.52;100.00;99887.25;5002975;28;20033;-69
2021/12/04 01:51:32;;;;;;;18.92;14.95;;;;;;;3.52;100.00;99889.97;5003912;28;20030;-69
2021/12/04 01:53:58;;;;;;;19.48;14.85;;;;;;;3.53;100.00;99883.50;5013126;28;20087;-69
2021/12/04 01:56:27;;;;;;;21.38;15.10;;;;;;;3.53;100.00;99880.78;5004617;28;20515;-69
2021/12/04 01:58:53;;;;;;;19.75;14.95;;;;;;;3.56;100.00;99884.97;4992821;28;20135;-69
2021/12/04 02:01:18;;;;;;;19.90;14.60;;;;;;;3.56;100.00;99888.53;5006631;28;20075;-69
2021/12/04 02:03:43;;;;;;;18.27;14.60;;;;;;;3.59;100.00;99884.53;5011454;28;20030;-69
2021/12/04 02:06:09;;;;;;;19.75;14.43;;;;;;;3.58;100.00;99885.59;5023707;28;20036;-69
2021/12/04 02:08:34;;;;;;;19.10;14.52;;;;;;;3.58;100.00;99874.72;5009000;28;20431;-69
2021/12/04 02:11:00;;;;;;;18.50;14.23;;;;;;;3.61;100.00;99877.03;5001658;28;20065;-70
2021/12/04 02:13:26;;;;;;;18.50;14.10;;;;;;;3.62;100.00;99876.81;5003943;28;20057;-70
2021/12/04 02:15:51;;;;;;;19.65;13.73;;;;;;;3.61;100.00;99869.72;5003286;28;20124;-69
2021/12/04 02:18:19;;;;;;;18.23;13.95;;;;;;;3.63;100.00;99851.31;5003440;28;20187;-69
2021/12/04 02:20:45;;;;;;;18.20;13.63;;;;;;;3.63;100.00;99845.91;5010559;28;20040;-69
2021/12/04 02:23:11;;;;;;;20.08;14.27;;;;;;;3.62;100.00;99836.09;5004094;28;20426;-69
2021/12/04 02:25:37;;;;;;;19.42;13.82;;;;;;;3.61;100.00;99829.00;5001500;28;20081;-69
2021/12/04 02:28:04;;;;;;;20.95;13.82;;;;;;;3.64;100.00;99823.13;5003641;28;20041;-69
2021/12/04 02:30:34;;;;;;;20.15;15.23;;;;;;;3.62;100.00;99829.81;5003103;28;20403;-69
2021/12/04 02:33:00;;;;;;;19.95;15.25;;;;;;;3.63;100.00;99821.47;5003983;28;20030;-69
2021/12/04 02:35:26;;;;;;;20.98;14.98;;;;;;;3.61;100.00;99829.00;5006127;28;20459;-69
2021/12/04 02:37:53;;;;;;;23.20;16.73;;;;;;;3.64;100.00;99825.00;5009458;28;20465;-69
2021/12/04 02:40:21;;;;;;;20.65;15.50;;;;;;;3.63;100.00;99818.75;5003125;28;20049;-69
2021/12/04 02:42:46;;;;;;;;;;;;;;;3.72;100.00;99818.53;5004359;28;20045;-69
2021/12/04 02:45:13;;;;;;;20.60;14.90;;;;;;;3.65;100.00;99813.13;5000608;28;19917;-69
2021/12/04 02:47:38;;;;;;;19.55;14.73;;;;;;;3.65;100.00;99810.41;5004171;28;20096;-70
2021/12/04 02:50:07;;;;;;;21.33;14.75;;;;;;;3.63;100.00;99802.44;5003269;28;20492;-69
2021/12/04 02:52:32;;;;;;;;;;;;;;;3.68;100.00;99803.72;4992763;28;20065;-69
2021/12/04 02:54:58;;;;;;;22.02;15.15;;;;;;;3.63;100.00;99797.03;5003601;28;19960;-69
2021/12/04 02:57:23;;;;;;;20.75;14.32;;;;;;;3.66;100.00;99805.81;5012090;28;20060;-69
2021/12/04 02:59:50;;;;;;;23.30;16.38;;;;;;;3.64;100.00;99803.28;5004051;28;20029;-69
2021/12/04 03:02:21;;;;;;;23.00;15.45;;;;;;;3.64;100.00;99804.13;5033971;22;20590;-69
2021/12/04 03:04:52;;;;;;;22.92;16.20;;;;;;;3.67;100.00;99812.91;5027167;28;20036;-70
2021/12/04 03:07:19;;;;;;;25.77;16.55;;;;;;;3.67;100.00;99802.03;5030628;28;20892;-69
2021/12/04 03:09:44;;;;;;;29.42;16.55;;;;;;;3.67;100.00;99793.91;5047147;28;20028;-70
2021/12/04 03:12:11;;;;;;;25.27;16.30;;;;;;;3.67;100.00;99799.31;5039077;28;20030;-69
2021/12/04 03:14:37;;;;;;;22.92;15.85;;;;;;;3.68;100.00;99799.09;5046441;28;20087;-69
2021/12/04 03:17:04;;;;;;;24.73;16.80;;;;;;;3.68;100.00;99793.69;5030606;28;20078;-69
2021/12/04 03:19:29;;;;;;;24.60;15.95;;;;;;;3.68;100.00;99795.56;5026747;28;20033;-69
2021/12/04 03:21:55;;;;;;;23.10;15.85;;;;;;;3.67;100.00;99783.88;5028009;28;20059;-69
2021/12/04 03:24:23;;;;;;;23.50;15.43;;;;;;;3.68;100.00;99779.28;5030799;28;20057;-69
2021/12/04 03:26:50;;;;;;;22.80;15.17;;;;;;;3.67;100.00;99777.59;5044641;28;20025;-69
2021/12/04 03:29:19;;;;;;;23.42;15.30;;;;;;;3.68;100.00;99773.84;5038167;28;20084;-69
2021/12/04 03:42:37;;;;;;;22.30;15.38;;;;;;;3.69;100.00;99772.78;5027202;28;20135;-70
2021/12/04 03:45:07;;;;;;;20.20;14.05;;;;;;;3.75;100.00;99767.38;5025800;28;20457;-69
2021/12/04 03:47:32;;;;;;;23.73;16.00;;;;;;;3.71;100.00;99768.00;5030301;28;20056;-69
2021/12/04 03:49:57;;;;;;;23.25;15.15;;;;;;;3.69;100.00;99760.03;5038925;28;20484;-69
2021/12/04 03:52:23;;;;;;;20.35;14.63;;;;;;;3.70;100.00;99758.16;5026517;28;20061;-69
2021/12/04 03:54:49;;;;;;;23.88;15.73;;;;;;;3.69;100.00;99756.50;5028140;28;20659;-69
2021/12/04 03:57:14;;;;;;;22.20;14.65;;;;;;;3.70;100.00;99747.28;5037004;28;20108;-69
2021/12/04 03:59:45;;;;;;;22.58;14.48;;;;;;;3.68;100.00;99750.22;5025689;28;20026;-69
2021/12/04 04:02:12;;;;;;;18.77;13.40;;;;;;;3.69;100.00;99756.50;5025549;28;20049;-69
2021/12/04 04:04:38;;;;;;;20.65;13.70;;;;;;;3.68;100.00;99750.22;5023076;28;20395;-69
2021/12/04 04:07:04;;;;;;;18.85;13.32;;;;;;;3.67;100.00;99758.59;5037198;28;20050;-69
2021/12/04 04:09:30;;;;;;;23.02;13.75;;;;;;;3.69;100.00;99759.22;5033442;28;20029;-70
2021/12/04 04:11:56;;;;;;;19.23;13.52;;;;;;;3.69;100.00;99751.06;5032576;28;20079;-69
2021/12/04 04:14:23;;;;;;;21.05;13.05;;;;;;;3.68;100.00;99738.53;5030869;28;20091;-69
2021/12/04 04:16:49;;;;;;;17.38;12.60;;;;;;;3.68;100.00;99733.09;5046305;28;20530;-69
2021/12/04 04:19:14;;;;;;;17.90;12.68;;;;;;;3.68;100.00;99728.50;5042037;28;20412;-70
2021/12/04 04:21:41;;;;;;;19.40;12.23;;;;;;;3.67;100.00;99726.03;5024941;28;20045;-69
2021/12/04 04:24:12;;;;;;;19.30;13.23;;;;;;;3.67;100.00;99723.31;5039573;28;20145;-70
2021/12/04 04:26:38;;;;;;;16.60;11.55;;;;;;;3.68;100.00;99728.50;5046275;28;20337;-70
2021/12/04 04:29:05;;;;;;;18.40;12.13;;;;;;;3.68;100.00;99727.69;5032498;28;20041;-69
2021/12/04 04:31:31;;;;;;;14.98;10.93;;;;;;;3.69;100.00;99723.91;5025254;28;20034;-70
2021/12/04 04:34:02;;;;;;;17.15;11.00;;;;;;;3.67;100.00;99724.13;5037415;28;20072;-70
2021/12/04 04:58:25;;;;;;;12.50;8.95;;;;;;;3.68;100.00;99724.97;5036417;28;20103;-69
2021/12/04 05:12:02;;;;;;;11.80;8.52;;;;;;;3.69;100.00;99697.59;5038529;28;20040;-69
2021/12/04 05:14:28;;;;;;;13.02;8.75;;;;;;;3.69;100.00;99702.19;5044276;28;20025;-70
2021/12/04 05:17:26;;;;;;;12.27;9.00;;;;;;;3.69;100.00;99702.19;5034969;28;20025;-70
2021/12/04 05:19:54;;;;;;;11.73;7.93;;;;;;;3.72;100.00;99701.78;5024932;28;20034;-70
2021/12/04 05:22:21;;;;;;;11.55;8.10;;;;;;;3.70;100.00;99687.56;5035488;28;20136;-69
2021/12/04 05:24:47;;;;;;;11.23;7.63;;;;;;;3.69;99.93;99681.28;5039428;28;20052;-69
2021/12/04 05:27:12;;;;;;;12.00;8.75;;;;;;;3.69;100.00;99691.31;5036218;28;20478;-70
2021/12/04 05:29:38;;;;;;;11.05;7.88;;;;;;;3.69;100.00;99692.16;5038309;28;20041;-70
2021/12/04 05:32:05;;;;;;;11.85;7.97;;;;;;;3.71;100.00;99697.41;5024225;28;20123;-70
2021/12/04 05:34:32;;;;;;;11.13;7.32;;;;;;;3.70;100.00;99693.00;5023433;28;20025;-71
2021/12/04 05:36:58;;;;;;;11.15;7.88;;;;;;;3.70;100.00;99682.13;5011319;28;20033;-70
2021/12/04 05:39:24;;;;;;;11.10;7.93;;;;;;;3.69;100.00;99685.91;5032618;28;20048;-70
2021/12/04 05:41:50;;;;;;;11.32;7.93;;;;;;;3.69;100.00;99688.63;5031168;28;20037;-70
2021/12/04 05:44:18;;;;;;;10.32;6.95;;;;;;;3.70;100.00;99683.00;5024686;28;20460;-70
2021/12/04 05:46:46;;;;;;;10.93;7.40;;;;;;;3.70;100.00;99691.13;5039957;28;20029;-70
2021/12/04 05:49:19;;;;;;;10.77;7.43;;;;;;;3.71;100.00;99697.41;5025401;28;20388;-70
2021/12/04 05:57:08;;;;;;;9.90;6.97;;;;;;;3.75;100.00;99693.19;5039954;28;20112;-70
2021/12/04 05:59:34;;;;;;;10.77;7.93;;;;;;;3.75;99.99;99685.91;5038737;28;20502;-70
2021/12/04 06:01:59;;;;;;;11.57;7.47;;;;;;;3.78;100.00;99681.91;5026825;28;20049;-71
2021/12/04 06:04:25;;;;;;;10.13;7.35;;;;;;;3.79;99.76;99678.13;5044539;28;20041;-70
2021/12/04 06:06:50;;;;;;;11.52;7.85;;;;;;;3.78;99.82;99681.91;5029823;28;20033;-70
2021/12/04 06:09:16;;;;;;;10.43;7.38;;;;;;;3.80;99.79;99677.06;5043878;28;20736;-70
2021/12/04 06:11:41;;;;;;;10.38;7.95;;;;;;;3.81;100.00;99674.16;5030679;28;20041;-70
2021/12/04 06:14:07;;;;;;;10.88;7.47;;;;;;;3.82;100.00;99677.72;5029565;28;20104;-70
2021/12/04 06:16:32;;;;;;;11.23;7.93;;;;;;;3.81;100.00;99667.91;5044665;28;20025;-70
2021/12/04 06:19:05;;;;;;;12.25;8.25;;;;;;;3.81;100.00;99670.63;5042333;28;20483;-69
2021/12/04 06:24:14;;;;;;;12.10;7.32;;;;;;;3.80;100.00;99664.34;5032002;28;20098;-70
2021/12/04 06:26:40;;;;;;;12.40;7.72;;;;;;;3.79;100.00;99661.84;5034910;28;20025;-69
2021/12/04 06:29:05;;;;;;;10.38;6.93;;;;;;;3.79;100.00;99668.09;5023976;28;20037;-69
2021/12/04 06:31:31;;;;;;;12.45;6.95;;;;;;;3.78;100.00;99662.88;5024818;28;20021;-69
2021/12/04 06:33:57;;;;;;;12.13;6.93;;;;;;;3.79;100.00;99656.41;5030829;28;20120;-70
2021/12/04 06:36:24;;;;;;;10.48;7.05;;;;;;;3.77;100.00;99669.38;5043905;28;20100;-69
2021/12/04 06:38:50;;;;;;;9.88;7.07;;;;;;;3.77;100.00;99677.53;5033409;28;20075;-70
2021/12/04 06:41:15;;;;;;;9.52;6.47;;;;;;;3.77;100.00;99669.38;5032358;28;20029;-70
2021/12/04 06:43:47;;;;;;;9.25;6.57;;;;;;;3.76;100.00;99671.25;5048153;28;20029;-70
2021/12/04 06:46:12;;;;;;;10.70;6.78;;;;;;;3.75;100.00;99668.75;5042387;28;20025;-69
2021/12/04 06:49:04;;;;;;;9.00;5.97;;;;;;;3.75;100.00;99676.88;5026774;28;20716;-69
2021/12/04 06:51:31;;;;;;;9.55;6.45;;;;;;;3.74;100.00;99672.50;5028944;28;20120;-70
2021/12/04 06:54:03;;;;;;;9.70;6.82;;;;;;;3.72;100.00;99667.31;5035472;28;20021;-70
2021/12/04 06:56:34;;;;;;;9.38;6.45;;;;;;;3.73;100.00;99670.84;5044100;28;20033;-70
2021/12/04 06:59:05;;;;;;;12.10;7.32;;;;;;;3.72;100.00;99675.44;5027262;28;20037;-70
2021/12/04 07:01:30;;;;;;;11.75;7.22;;;;;;;3.72;100.00;99672.72;5031167;28;20042;-70
2021/12/04 07:03:56;;;;;;;10.27;7.10;;;;;;;3.73;100.00;99676.28;5029748;28;20101;-69
2021/12/04 07:06:21;;;;;;;10.00;7.07;;;;;;;3.73;100.00;99670.84;5047200;28;20060;-69
2021/12/04 07:08:46;;;;;;;9.52;6.95;;;;;;;3.74;100.00;99672.50;5038318;28;20084;-70
2021/12/04 07:11:12;;;;;;;10.25;6.88;;;;;;;3.74;100.00;99667.06;5026552;28;20029;-70
2021/12/04 07:13:37;;;;;;;11.18;7.40;;;;;;;3.76;100.00;99670.44;5026109;28;20029;-70
2021/12/04 07:16:05;;;;;;;10.60;7.40;;;;;;;3.74;100.00;99667.06;5043115;28;20029;-69
2021/12/04 07:18:32;;;;;;;14.30;7.72;;;;;;;3.75;100.00;99677.75;5043104;28;20071;-69
2021/12/04 07:20:57;;;;;;;10.77;7.13;;;;;;;3.75;100.00;99674.16;5034222;28;20037;-70
2021/12/04 07:23:23;;;;;;;12.77;7.53;;;;;;;3.76;100.00;99670.44;5038468;28;20048;-71
2021/12/04 07:25:48;;;;;;;10.98;7.40;;;;;;;3.76;100.00;99665.84;5027458;28;20044;-71
2021/12/04 07:28:13;;;;;;;10.48;7.50;;;;;;;3.75;100.00;99661.44;5027383;28;20017;-71
2021/12/04 07:30:39;;;;;;;12.90;7.70;;;;;;;3.75;100.00;99664.16;5026531;28;20392;-71
2021/12/04 07:33:04;;;;;;;11.82;7.95;;;;;;;3.76;100.00;99656.84;5034676;28;20060;-70
2021/12/04 07:35:29;;;;;;;12.50;8.13;;;;;;;3.74;100.00;99659.75;5046701;28;20029;-70
2021/12/04 07:37:54;;;;;;;12.88;8.02;;;;;;;3.75;100.00;99664.16;5039352;28;20030;-70
2021/12/04 07:40:20;;;;;;;13.30;8.05;;;;;;;3.77;100.00;99669.38;5025866;28;20052;-71
2021/12/04 07:42:46;;;;;;;12.25;7.55;;;;;;;3.80;100.00;99671.63;5030915;28;20025;-71
2021/12/04 07:45:11;;;;;;;13.50;7.38;;;;;;;3.81;100.00;99667.91;5046069;28;20020;-71
2021/12/04 07:47:37;;;;;;;12.90;8.00;;;;;;;3.79;100.00;99659.94;5035816;28;20098;-71
2021/12/04 07:50:06;;;;;;;12.55;8.23;;;;;;;3.82;100.00;99659.53;5026447;28;20026;-69
2021/12/04 07:52:31;;;;;;;12.27;8.25;;;;;;;3.86;100.00;99659.94;5037201;28;20013;-72
2021/12/04 07:54:57;;;;;;;13.63;8.00;;;;;;;3.87;100.00;99656.16;5046323;28;20088;-70
2021/12/04 07:57:23;;;;;;;13.68;8.40;;;;;;;3.89;100.00;99654.06;5037403;28;20021;-70
2021/12/04 07:59:48;;;;;;;12.45;7.75;;;;;;;3.90;100.00;99650.28;5045560;28;20046;-70
2021/12/04 08:02:13;;;;;;;12.60;8.15;;;;;;;3.89;100.00;99646.75;5046185;28;20053;-70
2021/12/04 08:04:39;;;;;;;12.30;8.02;;;;;;;3.90;100.00;99639.41;5046181;28;20028;-70
2021/12/04 08:07:04;;;;;;;12.45;8.00;;;;;;;3.90;100.00;99645.72;5046345;28;20025;-70
2021/12/04 08:09:29;;;;;;;13.52;7.97;;;;;;;3.93;100.00;99646.31;5046294;28;20032;-70
2021/12/04 08:11:54;;;;;;;14.23;7.90;;;;;;;3.96;100.00;99649.44;5046476;28;20135;-69
2021/12/04 08:14:20;;;;;;;11.73;7.95;;;;;;;3.97;100.00;99640.22;5044879;28;20029;-70
2021/12/04 08:16:47;;;;;;;11.98;7.30;;;;;;;4.01;100.00;99654.22;5029187;28;20029;-69
2021/12/04 08:19:13;;;;;;;12.57;7.25;;;;;;;3.99;100.00;99642.72;5024859;28;20040;-69
2021/12/04 08:21:38;;;;;;;12.00;7.28;;;;;;;4.00;100.00;99637.06;5024858;28;20025;-69
2021/12/04 08:24:06;;;;;;;12.88;7.28;;;;;;;4.02;100.00;99626.00;5024480;28;20147;-69
2021/12/04 08:26:31;;;;;;;12.65;7.93;;;;;;;4.02;100.00;99621.41;5025203;28;20495;-69
2021/12/04 08:28:57;;;;;;;13.98;7.32;;;;;;;4.03;100.00;99612.19;5024824;28;20021;-69
2021/12/04 08:31:23;;;;;;;12.30;7.55;;;;;;;4.03;100.00;99606.75;5025903;28;20110;-69
2021/12/04 08:33:48;;;;;;;11.20;7.45;;;;;;;4.03;100.00;99611.34;5025980;28;20025;-69
2021/12/04 08:36:14;;;;;;;14.00;7.47;;;;;;;4.01;100.00;99600.72;5025160;28;20036;-70
2021/12/04 08:38:42;;;;;;;11.57;7.05;;;;;;;4.00;100.00;99607.19;5025389;28;20059;-69
2021/12/04 08:41:07;;;;;;;12.57;7.82;;;;;;;3.99;100.00;99605.53;5023441;28;20613;-69
2021/12/04 08:43:32;;;;;;;13.88;8.57;;;;;;;4.00;100.00;99596.31;5025315;28;20029;-66
2021/12/04 08:46:00;;;;;;;14.10;8.85;;;;;;;3.99;100.00;99591.94;5025982;28;20131;-66
2021/12/04 08:48:27;;;;;;;14.45;9.02;;;;;;;4.01;100.00;99589.84;5025697;28;20025;-66
2021/12/04 08:50:52;;;;;;;14.25;9.15;;;;;;;4.02;100.00;99577.94;5025832;28;20033;-65
2021/12/04 08:53:17;;;;;;;14.93;9.57;;;;;;;4.02;100.00;99579.81;5024972;28;20018;-66
2021/12/04 08:55:43;;;;;;;16.27;10.07;;;;;;;4.03;100.00;99587.75;5024888;28;20465;-66
2021/12/04 08:58:09;;;;;;;16.08;10.52;;;;;;;4.03;100.00;99578.75;5024950;28;20411;-66
2021/12/04 09:00:49;;;;;;;15.38;10.05;;;;;;;4.06;100.00;99583.78;5023614;28;20022;-65
2021/12/04 09:03:19;;;;;;;16.63;10.20;;;;;;;4.06;100.00;99581.88;5024894;28;20050;-66
2021/12/04 09:05:45;;;;;;;15.50;10.40;;;;;;;4.10;100.00;99579.53;5024969;28;20080;-66
2021/12/04 09:08:11;;;;;;;16.83;10.07;;;;;;;4.12;100.00;99589.16;5024780;28;20480;-66
2021/12/04 09:10:41;;;;;;;16.15;10.48;;;;;;;4.13;100.00;99593.53;5024835;28;20033;-66
2021/12/04 09:13:07;;;;;;;13.93;9.60;;;;;;;4.17;99.86;99596.66;5024835;28;20030;-65
2021/12/04 09:15:33;;;;;;;15.60;9.55;;;;;;;4.20;99.98;99593.47;5024131;28;20491;-66
2021/12/04 09:17:59;;;;;;;14.68;9.32;;;;;;;4.23;100.00;99587.59;5025285;28;20202;-66
2021/12/04 09:20:28;;;;;;;15.90;10.52;;;;;;;4.25;99.78;99588.19;5024598;28;20025;-66
2021/12/04 09:22:53;;;;;;;12.63;9.07;;;;;;;4.24;99.83;99591.16;5025537;28;20033;-66
2021/12/04 09:25:23;;;;;;;15.27;9.60;;;;;;;4.24;100.00;99583.81;5024337;28;20039;-66
2021/12/04 09:33:33;;;;;;;12.48;8.27;;;;;;;4.27;99.70;99571.69;5024982;28;20037;-65
2021/12/04 10:00:54;;;;;;;11.88;7.53;;;;;;;4.54;98.73;99535.06;5023397;28;20044;-65
2021/12/04 10:22:20;;;;;;;13.25;8.82;;;;;;;4.46;98.30;99539.94;5023961;28;20095;-66
2021/12/04 10:25:04;;;;;;;13.75;9.18;;;;;;;4.43;98.47;99535.81;5023626;28;20029;-66
2021/12/04 10:33:17;;;;;;;13.57;8.68;;;;;;;4.51;97.89;99510.19;5023792;28;20037;-65
2021/12/04 10:35:45;;;;;;;12.55;9.25;;;;;;;4.49;98.48;99507.72;5024151;28;20105;-65
2021/12/04 10:38:19;;;;;;;14.02;8.77;;;;;;;4.53;98.35;99502.66;5023642;28;20021;-66
2021/12/04 10:40:48;;;;;;;14.07;9.18;;;;;;;4.51;98.12;99502.91;5023663;28;20352;-66
2021/12/04 10:43:17;;;;;;;14.38;9.95;;;;;;;4.49;98.33;99491.41;5023333;28;20033;-66
2021/12/04 10:45:48;;;;;;;12.80;9.15;;;;;;;4.54;98.69;99497.00;5023791;28;20018;-65
2021/12/04 10:48:19;;;;;;;13.38;10.15;;;;;;;4.55;98.09;99486.94;5023597;28;20029;-65
2021/12/04 10:53:35;;;;;;;14.50;11.20;;;;;;;4.54;98.13;99488.84;5024118;28;20040;-66
2021/12/04 11:01:19;;;;;;;15.93;11.23;;;;;;;4.56;98.19;99475.88;5023590;28;20128;-66
2021/12/04 11:20:59;;;;;;;19.83;12.63;;;;;;;4.81;97.94;99420.56;5012385;28;20426;-66
2021/12/04 11:23:37;;;;;;;19.58;13.18;;;;;;;4.83;97.75;99430.16;5026522;28;20040;-66
2021/12/04 11:35:10;;;;;;;18.25;12.57;;;;;;;4.92;97.63;99434.25;5027418;28;20483;-67
2021/12/04 11:44:55;;;;;;;17.50;13.02;;;;;;;5.03;97.43;99419.03;5027432;28;20033;-65
2021/12/04 11:47:21;;;;;;;16.67;12.90;;;;;;;5.05;97.08;99414.16;5027776;28;20025;-66
2021/12/04 11:49:46;;;;;;;17.05;12.40;;;;;;;5.04;96.99;99400.81;5027299;28;20040;-65
2021/12/04 11:52:19;;;;;;;16.23;12.75;;;;;;;5.05;97.20;99408.72;5027724;28;20037;-65
2021/12/04 11:54:57;;;;;;;17.77;13.38;;;;;;;5.08;97.10;99408.28;5027323;28;20491;-66
2021/12/04 11:57:32;;;;;;;16.35;13.18;;;;;;;5.05;96.59;99403.28;5028374;28;20034;-66
2021/12/04 12:00:28;;;;;;;18.15;14.50;;;;;;;5.05;96.84;99397.84;5026840;28;20389;-66
2021/12/04 12:03:21;;;;;;;23.27;14.40;;;;;;;5.06;96.79;99399.50;5028063;28;20050;-66
2021/12/04 12:05:51;;;;;;;19.27;14.27;;;;;;;5.05;96.44;99386.13;5027387;28;20040;-66
2021/12/04 12:08:31;;;;;;;21.20;15.10;;;;;;;5.06;97.00;99391.34;5027011;28;20677;-65
2021/12/04 12:11:00;;;;;;;18.80;13.48;;;;;;;5.05;96.72;99380.69;5026995;28;20034;-66
2021/12/04 12:13:49;;;;;;;18.08;13.73;;;;;;;5.06;96.77;99382.34;5026504;28;20021;-66
2021/12/04 12:16:21;;;;;;;15.57;12.55;;;;;;;5.06;96.76;99366.84;5027387;28;20056;-66
2021/12/04 12:19:00;;;;;;;16.23;12.85;;;;;;;5.10;96.86;99384.38;5027398;28;20037;-66
2021/12/04 12:21:34;;;;;;;17.35;13.13;;;;;;;5.07;97.09;99376.69;5027522;28;20439;-66
2021/12/04 12:27:19;;;;;;;15.82;13.07;;;;;;;5.10;97.15;99368.06;5027537;28;20054;-66
2021/12/04 12:37:53;;;;;;;15.63;12.02;;;;;;;5.09;97.64;99377.28;5027088;28;20025;-67
2021/12/04 12:40:19;;;;;;;16.75;12.68;;;;;;;5.08;97.65;99372.91;5025346;28;20041;-67
2021/12/04 12:42:45;;;;;;;15.13;12.60;;;;;;;5.09;97.74;99374.56;5028294;28;20120;-66
2021/12/04 12:45:15;;;;;;;20.30;12.40;;;;;;;5.12;97.48;99370.53;5044498;28;20167;-65
2021/12/04 12:47:57;;;;;;;16.42;12.57;;;;;;;5.14;98.01;99374.69;5028610;28;20044;-66
2021/12/04 12:50:34;;;;;;;17.38;12.93;;;;;;;5.15;97.66;99370.91;5025377;28;20119;-65
2021/12/04 12:53:03;;;;;;;20.52;14.55;;;;;;;5.14;97.77;99374.69;5024850;28;20029;-66
2021/12/04 12:55:34;;;;;;;19.27;15.65;;;;;;;5.13;97.83;99378.47;5041066;28;20033;-66
2021/12/04 12:58:16;;;;;;;16.50;12.15;;;;;;;5.13;97.93;99378.47;5045244;28;20028;-66
2021/12/04 13:12:09;;;;;;;19.05;13.63;;;;;;;5.03;99.10;99372.78;5045329;28;20047;-65
2021/12/04 13:14:40;;;;;;;20.85;14.90;;;;;;;5.05;99.01;99364.38;5037631;28;20450;-65
2021/12/04 13:17:09;;;;;;;24.15;15.00;;;;;;;5.00;99.38;99359.63;5037776;28;20112;-65
2021/12/04 13:19:39;;;;;;;22.20;15.30;;;;;;;5.00;99.56;99350.63;5025869;28;20029;-65
2021/12/04 13:22:08;;;;;;;22.52;14.85;;;;;;;4.97;99.45;99367.41;5025227;28;20077;-67
2021/12/04 13:24:37;;;;;;;21.75;14.63;;;;;;;4.98;100.00;99358.19;5030335;28;20395;-66
2021/12/04 13:29:40;;;;;;;27.30;17.42;;;;;;;4.99;100.00;99360.69;5037807;28;20037;-67
2021/12/04 13:32:06;;;;;;;28.88;17.98;;;;;;;5.02;100.00;99360.22;5025029;28;20321;-67
2021/12/04 13:34:34;;;;;;;31.00;18.92;;;;;;;5.04;100.00;99349.94;5029712;28;20527;-66
2021/12/04 13:37:00;;;;;;;29.45;19.55;;;;;;;5.09;100.00;99346.53;5036715;28;20022;-66
2021/12/04 13:39:26;;;;;;;32.20;20.77;;;;;;;5.11;100.00;99344.38;5027620;28;20395;-57
2021/12/04 13:41:53;;;;;;;34.65;20.17;;;;;;;5.24;100.00;99346.91;5045617;28;20033;-57
2021/12/04 13:44:21;;;;;;;30.42;19.45;;;;;;;5.22;100.00;99343.63;5041130;28;20025;-60
2021/12/04 13:46:54;;;;;;;29.35;19.13;;;;;;;5.24;100.00;99341.47;5024279;28;20025;-60
2021/12/04 13:49:22;;;;;;;26.83;17.35;;;;;;;5.25;99.67;99347.75;5025422;28;20029;-61
2021/12/04 13:51:55;;;;;;;27.23;17.75;;;;;;;5.22;99.95;99349.06;5005283;28;20030;-60
2021/12/04 13:54:23;;;;;;;26.25;16.75;;;;;;;5.21;100.00;99350.91;5029871;28;20502;-61
2021/12/04 13:56:49;;;;;;;26.73;17.38;;;;;;;5.23;100.00;99349.88;5038560;28;20086;-57
2021/12/04 13:59:14;;;;;;;25.63;17.45;;;;;;;5.21;99.98;99350.91;5033959;28;20064;-56
2021/12/04 14:01:42;;;;;;;26.90;17.67;;;;;;;5.19;100.00;99353.06;5033080;28;20068;-57
2021/12/04 14:04:16;;;;;;;25.25;17.17;;;;;;;5.20;100.00;99349.28;5036389;28;20061;-56
2021/12/04 14:06:49;;;;;;;27.60;17.90;;;;;;;5.27;100.00;99345.59;5025870;28;20056;-56
2021/12/04 14:09:16;;;;;;;29.10;20.08;;;;;;;5.28;99.77;99348.13;5024416;28;20026;-56
2021/12/04 14:11:42;;;;;;;26.83;19.02;;;;;;;5.37;100.00;99345.88;5026442;28;20024;-59
2021/12/04 14:14:19;;;;;;;31.75;21.75;;;;;;;5.32;100.00;99351.19;5039583;28;20447;-55
2021/12/04 14:16:46;;;;;;;22.92;16.55;;;;;;;5.31;100.00;99350.34;5041347;28;20124;-54
2021/12/04 14:19:17;;;;;;;24.67;17.50;;;;;;;5.37;99.79;99345.88;5032381;28;20475;-54
2021/12/04 14:22:04;;;;;;;26.83;17.88;;;;;;;5.37;99.99;99348.59;5029244;28;20036;-54
2021/12/04 14:24:34;;;;;;;26.97;16.93;;;;;;;5.39;99.40;99347.31;5038129;28;20036;-55
2021/12/04 14:27:03;;;;;;;23.88;16.73;;;;;;;5.34;99.93;99349.91;5032973;28;20119;-53
2021/12/04 14:29:46;;;;;;;23.58;16.08;;;;;;;5.35;99.91;99354.28;5032044;28;20394;-54
2021/12/04 14:32:12;;;;;;;24.75;16.35;;;;;;;5.33;99.74;99358.31;5008632;28;20022;-55